sensor_id;sensor_type;location;lat;lon;timestamp;pressure;altitude;pressure_sealevel;temperature;humidity
62928;BME280;51070;52.236;-0.892;2023-09-30T00:00:15;101627.00;;;13.85;81.12
62928;BME280;51070;52.236;-0.892;2023-09-30T00:02:40;101623.81;;;13.84;81.18
62928;BME280;51070;52.236;-0.892;2023-09-30T00:05:06;101622.84;;;13.81;81.27
62928;BME280;51070;52.236;-0.892;2023-09-30T00:07:33;101627.96;;;13.78;81.54
62928;BME280;51070;52.236;-0.892;2023-09-30T00:09:58;101629.98;;;13.77;81.59
62928;BME280;51070;52.236;-0.892;2023-09-30T00:12:24;101638.08;;;13.74;81.72
62928;BME280;51070;52.236;-0.892;2023-09-30T00:14:49;101653.95;;;13.71;81.76
62928;BME280;51070;52.236;-0.892;2023-09-30T00:17:15;101658.23;;;13.69;81.85
62928;BME280;51070;52.236;-0.892;2023-09-30T00:19:40;101655.10;;;13.69;82.15
62928;BME280;51070;52.236;-0.892;2023-09-30T00:22:05;101645.00;;;13.69;82.16
62928;BME280;51070;52.236;-0.892;2023-09-30T00:24:31;101644.67;;;13.69;82.51
62928;BME280;51070;52.236;-0.892;2023-09-30T00:26:56;101649.86;;;13.68;82.61
62928;BME280;51070;52.236;-0.892;2023-09-30T00:29:21;101656.50;;;13.70;82.87
62928;BME280;51070;52.236;-0.892;2023-09-30T00:31:47;101651.89;;;13.72;82.93
62928;BME280;51070;52.236;-0.892;2023-09-30T00:34:12;101649.78;;;13.76;83.03
62928;BME280;51070;52.236;-0.892;2023-09-30T00:36:38;101641.91;;;13.80;82.89
62928;BME280;51070;52.236;-0.892;2023-09-30T00:39:03;101642.23;;;13.79;82.79
62928;BME280;51070;52.236;-0.892;2023-09-30T00:41:29;101647.20;;;13.82;82.91
62928;BME280;51070;52.236;-0.892;2023-09-30T00:43:54;101646.11;;;13.85;83.08
62928;BME280;51070;52.236;-0.892;2023-09-30T00:48:45;101636.55;;;13.85;82.81
62928;BME280;51070;52.236;-0.892;2023-09-30T00:51:11;101633.73;;;13.84;82.75
62928;BME280;51070;52.236;-0.892;2023-09-30T00:53:36;101634.00;;;13.82;82.62
62928;BME280;51070;52.236;-0.892;2023-09-30T00:56:02;101637.55;;;13.79;82.82
62928;BME280;51070;52.236;-0.892;2023-09-30T00:58:27;101640.77;;;13.77;82.93
62928;BME280;51070;52.236;-0.892;2023-09-30T01:00:54;101641.62;;;13.76;83.17
62928;BME280;51070;52.236;-0.892;2023-09-30T01:03:21;101644.16;;;13.74;82.93
62928;BME280;51070;52.236;-0.892;2023-09-30T01:05:47;101641.98;;;13.72;83.03
62928;BME280;51070;52.236;-0.892;2023-09-30T01:08:12;101639.76;;;13.67;83.09
62928;BME280;51070;52.236;-0.892;2023-09-30T01:10:37;101640.56;;;13.61;83.27
62928;BME280;51070;52.236;-0.892;2023-09-30T01:13:03;101648.25;;;13.57;83.68
62928;BME280;51070;52.236;-0.892;2023-09-30T01:15:28;101644.27;;;13.53;83.87
62928;BME280;51070;52.236;-0.892;2023-09-30T01:17:54;101643.65;;;13.50;84.06
62928;BME280;51070;52.236;-0.892;2023-09-30T01:20:19;101642.95;;;13.49;84.31
62928;BME280;51070;52.236;-0.892;2023-09-30T01:22:47;101647.63;;;13.49;84.50
62928;BME280;51070;52.236;-0.892;2023-09-30T01:25:12;101648.51;;;13.49;84.76
62928;BME280;51070;52.236;-0.892;2023-09-30T01:27:38;101645.35;;;13.49;84.57
62928;BME280;51070;52.236;-0.892;2023-09-30T01:30:03;101644.70;;;13.45;84.52
62928;BME280;51070;52.236;-0.892;2023-09-30T01:32:28;101645.88;;;13.43;84.95
62928;BME280;51070;52.236;-0.892;2023-09-30T01:34:54;101646.48;;;13.46;84.99
62928;BME280;51070;52.236;-0.892;2023-09-30T01:37:19;101646.94;;;13.49;84.89
62928;BME280;51070;52.236;-0.892;2023-09-30T01:39:44;101644.67;;;13.49;84.82
62928;BME280;51070;52.236;-0.892;2023-09-30T01:42:10;101641.52;;;13.43;84.94
62928;BME280;51070;52.236;-0.892;2023-09-30T01:44:36;101634.16;;;13.36;85.20
62928;BME280;51070;52.236;-0.892;2023-09-30T01:47:01;101625.70;;;13.33;85.61
62928;BME280;51070;52.236;-0.892;2023-09-30T01:49:26;101622.55;;;13.32;85.84
62928;BME280;51070;52.236;-0.892;2023-09-30T01:51:51;101625.39;;;13.34;85.99
62928;BME280;51070;52.236;-0.892;2023-09-30T01:54:17;101623.61;;;13.37;85.63
62928;BME280;51070;52.236;-0.892;2023-09-30T01:56:42;101621.05;;;13.39;85.24
62928;BME280;51070;52.236;-0.892;2023-09-30T01:59:07;101620.49;;;13.38;85.27
62928;BME280;51070;52.236;-0.892;2023-09-30T02:01:32;101616.13;;;13.32;85.39
62928;BME280;51070;52.236;-0.892;2023-09-30T02:03:58;101613.70;;;13.27;85.66
62928;BME280;51070;52.236;-0.892;2023-09-30T02:06:23;101613.57;;;13.19;86.04
62928;BME280;51070;52.236;-0.892;2023-09-30T02:08:48;101614.41;;;13.13;86.45
62928;BME280;51070;52.236;-0.892;2023-09-30T02:11:13;101614.12;;;13.11;86.66
62928;BME280;51070;52.236;-0.892;2023-09-30T02:13:39;101608.83;;;13.12;86.76
62928;BME280;51070;52.236;-0.892;2023-09-30T02:16:05;101607.80;;;13.13;86.43
62928;BME280;51070;52.236;-0.892;2023-09-30T02:18:30;101611.38;;;13.11;86.38
62928;BME280;51070;52.236;-0.892;2023-09-30T02:20:57;101609.08;;;13.10;86.46
62928;BME280;51070;52.236;-0.892;2023-09-30T02:23:24;101615.48;;;13.10;86.59
62928;BME280;51070;52.236;-0.892;2023-09-30T02:25:50;101624.55;;;13.11;86.62
62928;BME280;51070;52.236;-0.892;2023-09-30T02:28:15;101626.90;;;13.13;86.72
62928;BME280;51070;52.236;-0.892;2023-09-30T02:30:40;101628.23;;;13.12;86.70
62928;BME280;51070;52.236;-0.892;2023-09-30T02:33:06;101624.30;;;13.09;86.82
62928;BME280;51070;52.236;-0.892;2023-09-30T02:35:32;101618.80;;;13.06;86.91
62928;BME280;51070;52.236;-0.892;2023-09-30T02:37:57;101608.71;;;13.01;87.23
62928;BME280;51070;52.236;-0.892;2023-09-30T02:40:24;101603.09;;;12.94;87.42
62928;BME280;51070;52.236;-0.892;2023-09-30T02:42:50;101596.51;;;12.89;87.74
62928;BME280;51070;52.236;-0.892;2023-09-30T02:45:16;101599.84;;;12.86;87.85
62928;BME280;51070;52.236;-0.892;2023-09-30T02:47:45;101605.56;;;12.81;87.93
62928;BME280;51070;52.236;-0.892;2023-09-30T02:50:12;101609.01;;;12.76;88.35
62928;BME280;51070;52.236;-0.892;2023-09-30T02:52:37;101610.36;;;12.75;88.59
62928;BME280;51070;52.236;-0.892;2023-09-30T02:55:09;101613.42;;;12.78;89.02
62928;BME280;51070;52.236;-0.892;2023-09-30T02:57:34;101613.42;;;12.82;88.89
62928;BME280;51070;52.236;-0.892;2023-09-30T03:00:01;101615.41;;;12.85;88.66
62928;BME280;51070;52.236;-0.892;2023-09-30T03:02:37;101615.92;;;12.89;88.56
62928;BME280;51070;52.236;-0.892;2023-09-30T03:05:02;101614.77;;;12.91;88.11
62928;BME280;51070;52.236;-0.892;2023-09-30T03:07:28;101608.04;;;12.87;88.13
62928;BME280;51070;52.236;-0.892;2023-09-30T03:09:54;101614.89;;;12.80;88.32
62928;BME280;51070;52.236;-0.892;2023-09-30T03:12:20;101615.31;;;12.77;88.91
62928;BME280;51070;52.236;-0.892;2023-09-30T03:14:45;101619.15;;;12.78;89.02
62928;BME280;51070;52.236;-0.892;2023-09-30T03:17:10;101621.27;;;12.78;88.98
62928;BME280;51070;52.236;-0.892;2023-09-30T03:19:37;101615.17;;;12.78;88.93
62928;BME280;51070;52.236;-0.892;2023-09-30T03:22:02;101612.87;;;12.77;88.87
62928;BME280;51070;52.236;-0.892;2023-09-30T03:24:30;101607.48;;;12.76;88.93
62928;BME280;51070;52.236;-0.892;2023-09-30T03:26:56;101605.47;;;12.74;88.83
62928;BME280;51070;52.236;-0.892;2023-09-30T03:29:23;101616.05;;;12.69;89.05
62928;BME280;51070;52.236;-0.892;2023-09-30T03:31:48;101616.32;;;12.67;89.30
62928;BME280;51070;52.236;-0.892;2023-09-30T03:34:13;101617.29;;;12.66;89.38
62928;BME280;51070;52.236;-0.892;2023-09-30T03:36:41;101616.45;;;12.61;89.33
62928;BME280;51070;52.236;-0.892;2023-09-30T03:39:07;101609.52;;;12.57;89.43
62928;BME280;51070;52.236;-0.892;2023-09-30T03:41:34;101610.26;;;12.54;89.77
62928;BME280;51070;52.236;-0.892;2023-09-30T03:44:02;101608.05;;;12.51;89.71
62928;BME280;51070;52.236;-0.892;2023-09-30T03:46:27;101601.68;;;12.47;89.96
62928;BME280;51070;52.236;-0.892;2023-09-30T03:48:53;101597.31;;;12.46;89.98
62928;BME280;51070;52.236;-0.892;2023-09-30T03:51:18;101600.60;;;12.46;90.22
62928;BME280;51070;52.236;-0.892;2023-09-30T03:53:44;101601.45;;;12.45;90.13
62928;BME280;51070;52.236;-0.892;2023-09-30T03:56:11;101590.79;;;12.44;90.07
62928;BME280;51070;52.236;-0.892;2023-09-30T03:58:37;101583.32;;;12.43;90.29
62928;BME280;51070;52.236;-0.892;2023-09-30T04:01:03;101581.77;;;12.44;90.24
62928;BME280;51070;52.236;-0.892;2023-09-30T04:03:29;101578.76;;;12.46;90.87
62928;BME280;51070;52.236;-0.892;2023-09-30T04:05:54;101588.13;;;12.51;90.79
62928;BME280;51070;52.236;-0.892;2023-09-30T04:08:20;101582.98;;;12.52;90.16
62928;BME280;51070;52.236;-0.892;2023-09-30T04:10:47;101586.15;;;12.49;89.94
62928;BME280;51070;52.236;-0.892;2023-09-30T04:13:12;101596.92;;;12.45;90.08
62928;BME280;51070;52.236;-0.892;2023-09-30T04:15:38;101602.98;;;12.40;90.28
62928;BME280;51070;52.236;-0.892;2023-09-30T04:18:04;101605.43;;;12.37;90.47
62928;BME280;51070;52.236;-0.892;2023-09-30T04:20:30;101610.66;;;12.33;90.95
62928;BME280;51070;52.236;-0.892;2023-09-30T04:22:55;101618.76;;;12.32;91.01
62928;BME280;51070;52.236;-0.892;2023-09-30T04:25:22;101623.25;;;12.27;91.24
62928;BME280;51070;52.236;-0.892;2023-09-30T04:27:49;101620.59;;;12.21;91.46
62928;BME280;51070;52.236;-0.892;2023-09-30T04:30:15;101619.52;;;12.16;91.67
62928;BME280;51070;52.236;-0.892;2023-09-30T04:32:40;101625.17;;;12.14;92.25
62928;BME280;51070;52.236;-0.892;2023-09-30T04:35:06;101635.36;;;12.13;92.31
62928;BME280;51070;52.236;-0.892;2023-09-30T04:37:33;101645.77;;;12.13;92.50
62928;BME280;51070;52.236;-0.892;2023-09-30T04:39:59;101638.70;;;12.14;92.47
62928;BME280;51070;52.236;-0.892;2023-09-30T04:42:24;101631.27;;;12.15;92.31
62928;BME280;51070;52.236;-0.892;2023-09-30T04:44:51;101622.36;;;12.13;92.19
62928;BME280;51070;52.236;-0.892;2023-09-30T04:47:16;101607.88;;;12.11;92.29
62928;BME280;51070;52.236;-0.892;2023-09-30T04:49:43;101599.48;;;12.09;92.28
62928;BME280;51070;52.236;-0.892;2023-09-30T04:52:09;101590.93;;;12.07;92.65
62928;BME280;51070;52.236;-0.892;2023-09-30T04:54:34;101582.77;;;12.07;92.80
62928;BME280;51070;52.236;-0.892;2023-09-30T04:57:00;101589.99;;;12.05;93.02
62928;BME280;51070;52.236;-0.892;2023-09-30T04:59:26;101598.94;;;12.04;92.89
62928;BME280;51070;52.236;-0.892;2023-09-30T05:01:51;101612.01;;;12.01;93.09
62928;BME280;51070;52.236;-0.892;2023-09-30T05:04:16;101610.08;;;12.01;93.20
62928;BME280;51070;52.236;-0.892;2023-09-30T05:06:42;101611.84;;;12.01;93.34
62928;BME280;51070;52.236;-0.892;2023-09-30T05:09:07;101602.91;;;11.99;92.78
62928;BME280;51070;52.236;-0.892;2023-09-30T05:11:33;101594.70;;;11.97;93.16
62928;BME280;51070;52.236;-0.892;2023-09-30T05:14:00;101589.29;;;11.96;93.21
62928;BME280;51070;52.236;-0.892;2023-09-30T05:16:25;101595.14;;;11.96;93.30
62928;BME280;51070;52.236;-0.892;2023-09-30T05:18:52;101593.32;;;11.94;93.43
62928;BME280;51070;52.236;-0.892;2023-09-30T05:21:17;101584.87;;;11.95;93.46
62928;BME280;51070;52.236;-0.892;2023-09-30T05:23:42;101579.92;;;11.96;93.77
62928;BME280;51070;52.236;-0.892;2023-09-30T05:26:08;101583.00;;;12.00;93.96
62928;BME280;51070;52.236;-0.892;2023-09-30T05:28:33;101585.51;;;12.01;93.60
62928;BME280;51070;52.236;-0.892;2023-09-30T05:30:59;101590.08;;;11.99;93.66
62928;BME280;51070;52.236;-0.892;2023-09-30T05:33:26;101593.14;;;11.97;93.57
62928;BME280;51070;52.236;-0.892;2023-09-30T05:35:53;101596.20;;;11.96;93.81
62928;BME280;51070;52.236;-0.892;2023-09-30T05:38:19;101599.88;;;11.93;93.49
62928;BME280;51070;52.236;-0.892;2023-09-30T05:40:45;101596.45;;;11.90;93.70
62928;BME280;51070;52.236;-0.892;2023-09-30T05:43:11;101589.16;;;11.89;94.05
62928;BME280;51070;52.236;-0.892;2023-09-30T05:45:38;101590.97;;;11.91;94.56
62928;BME280;51070;52.236;-0.892;2023-09-30T05:48:05;101599.63;;;11.95;94.54
62928;BME280;51070;52.236;-0.892;2023-09-30T05:50:32;101606.17;;;11.98;94.07
62928;BME280;51070;52.236;-0.892;2023-09-30T05:52:59;101611.41;;;12.00;93.81
62928;BME280;51070;52.236;-0.892;2023-09-30T05:55:24;101612.74;;;11.98;93.80
62928;BME280;51070;52.236;-0.892;2023-09-30T05:57:50;101609.23;;;11.97;93.94
62928;BME280;51070;52.236;-0.892;2023-09-30T06:00:17;101613.99;;;11.95;93.94
62928;BME280;51070;52.236;-0.892;2023-09-30T06:02:47;101619.58;;;11.92;94.05
62928;BME280;51070;52.236;-0.892;2023-09-30T06:05:12;101631.39;;;11.89;94.22
62928;BME280;51070;52.236;-0.892;2023-09-30T06:07:37;101635.58;;;11.89;94.91
62928;BME280;51070;52.236;-0.892;2023-09-30T06:10:03;101643.69;;;11.89;94.65
62928;BME280;51070;52.236;-0.892;2023-09-30T06:12:29;101645.05;;;11.88;94.75
62928;BME280;51070;52.236;-0.892;2023-09-30T06:14:54;101649.95;;;11.90;95.01
62928;BME280;51070;52.236;-0.892;2023-09-30T06:17:19;101643.31;;;11.92;95.10
62928;BME280;51070;52.236;-0.892;2023-09-30T06:19:47;101645.69;;;11.95;95.36
62928;BME280;51070;52.236;-0.892;2023-09-30T06:22:14;101659.33;;;11.98;95.08
62928;BME280;51070;52.236;-0.892;2023-09-30T06:24:39;101661.59;;;11.98;94.70
62928;BME280;51070;52.236;-0.892;2023-09-30T06:27:05;101658.29;;;11.98;94.61
62928;BME280;51070;52.236;-0.892;2023-09-30T06:29:30;101649.47;;;11.98;94.72
62928;BME280;51070;52.236;-0.892;2023-09-30T06:31:56;101645.17;;;11.99;94.62
62928;BME280;51070;52.236;-0.892;2023-09-30T06:34:21;101634.90;;;12.02;94.87
62928;BME280;51070;52.236;-0.892;2023-09-30T06:36:46;101629.88;;;12.06;94.67
62928;BME280;51070;52.236;-0.892;2023-09-30T06:39:11;101615.80;;;12.10;94.16
62928;BME280;51070;52.236;-0.892;2023-09-30T06:41:37;101618.80;;;12.11;94.15
62928;BME280;51070;52.236;-0.892;2023-09-30T06:44:02;101626.02;;;12.14;94.28
62928;BME280;51070;52.236;-0.892;2023-09-30T06:46:27;101641.21;;;12.17;94.04
62928;BME280;51070;52.236;-0.892;2023-09-30T06:48:52;101644.81;;;12.16;93.54
62928;BME280;51070;52.236;-0.892;2023-09-30T06:51:18;101643.34;;;12.13;93.70
62928;BME280;51070;52.236;-0.892;2023-09-30T06:53:43;101652.08;;;12.15;93.88
62928;BME280;51070;52.236;-0.892;2023-09-30T06:56:08;101665.20;;;12.14;93.73
62928;BME280;51070;52.236;-0.892;2023-09-30T06:58:34;101676.23;;;12.13;93.93
62928;BME280;51070;52.236;-0.892;2023-09-30T07:01:00;101692.48;;;12.16;94.29
62928;BME280;51070;52.236;-0.892;2023-09-30T07:03:26;101695.27;;;12.21;94.05
62928;BME280;51070;52.236;-0.892;2023-09-30T07:05:51;101678.60;;;12.24;93.91
62928;BME280;51070;52.236;-0.892;2023-09-30T07:08:19;101657.25;;;12.23;93.63
62928;BME280;51070;52.236;-0.892;2023-09-30T07:10:46;101657.23;;;12.23;93.69
62928;BME280;51070;52.236;-0.892;2023-09-30T07:13:14;101658.56;;;12.26;94.11
62928;BME280;51070;52.236;-0.892;2023-09-30T07:15:40;101660.61;;;12.34;94.17
62928;BME280;51070;52.236;-0.892;2023-09-30T07:18:05;101658.48;;;12.41;94.19
62928;BME280;51070;52.236;-0.892;2023-09-30T07:20:31;101667.02;;;12.47;93.54
62928;BME280;51070;52.236;-0.892;2023-09-30T07:23:01;101678.56;;;12.49;93.40
62928;BME280;51070;52.236;-0.892;2023-09-30T07:25:26;101680.79;;;12.53;93.18
62928;BME280;51070;52.236;-0.892;2023-09-30T07:27:52;101676.92;;;12.55;93.06
62928;BME280;51070;52.236;-0.892;2023-09-30T07:30:17;101673.17;;;12.58;92.89
62928;BME280;51070;52.236;-0.892;2023-09-30T07:32:43;101670.51;;;12.60;93.01
62928;BME280;51070;52.236;-0.892;2023-09-30T07:35:09;101664.98;;;12.65;93.01
62928;BME280;51070;52.236;-0.892;2023-09-30T07:37:34;101656.20;;;12.72;92.77
62928;BME280;51070;52.236;-0.892;2023-09-30T07:39:59;101655.54;;;12.81;92.81
62928;BME280;51070;52.236;-0.892;2023-09-30T07:42:25;101652.20;;;12.94;92.83
62928;BME280;51070;52.236;-0.892;2023-09-30T07:44:50;101655.04;;;13.05;91.76
62928;BME280;51070;52.236;-0.892;2023-09-30T07:47:16;101664.77;;;13.14;91.15
62928;BME280;51070;52.236;-0.892;2023-09-30T07:49:42;101674.36;;;13.25;91.12
62928;BME280;51070;52.236;-0.892;2023-09-30T07:52:07;101670.77;;;13.36;90.52
62928;BME280;51070;52.236;-0.892;2023-09-30T07:54:33;101668.66;;;13.44;89.79
62928;BME280;51070;52.236;-0.892;2023-09-30T07:56:59;101660.98;;;13.49;89.10
62928;BME280;51070;52.236;-0.892;2023-09-30T07:59:24;101661.20;;;13.51;88.77
62928;BME280;51070;52.236;-0.892;2023-09-30T08:01:50;101662.83;;;13.57;89.20
62928;BME280;51070;52.236;-0.892;2023-09-30T08:04:17;101672.80;;;13.68;89.04
62928;BME280;51070;52.236;-0.892;2023-09-30T08:06:42;101675.53;;;13.82;88.63
62928;BME280;51070;52.236;-0.892;2023-09-30T08:09:08;101681.05;;;13.97;88.02
62928;BME280;51070;52.236;-0.892;2023-09-30T08:11:36;101682.91;;;14.00;87.45
62928;BME280;51070;52.236;-0.892;2023-09-30T08:14:03;101680.29;;;14.00;87.60
62928;BME280;51070;52.236;-0.892;2023-09-30T08:16:32;101675.30;;;14.06;87.69
62928;BME280;51070;52.236;-0.892;2023-09-30T08:18:57;101674.73;;;14.16;87.30
62928;BME280;51070;52.236;-0.892;2023-09-30T08:21:23;101677.36;;;14.32;87.08
62928;BME280;51070;52.236;-0.892;2023-09-30T08:23:48;101671.25;;;14.52;86.66
62928;BME280;51070;52.236;-0.892;2023-09-30T08:26:13;101666.29;;;14.78;85.92
62928;BME280;51070;52.236;-0.892;2023-09-30T08:28:39;101666.40;;;14.99;84.71
62928;BME280;51070;52.236;-0.892;2023-09-30T08:31:04;101662.55;;;15.10;83.63
62928;BME280;51070;52.236;-0.892;2023-09-30T08:33:30;101664.21;;;15.20;83.18
62928;BME280;51070;52.236;-0.892;2023-09-30T08:35:56;101669.48;;;15.34;81.97
62928;BME280;51070;52.236;-0.892;2023-09-30T08:38:23;101671.67;;;15.56;81.90
62928;BME280;51070;52.236;-0.892;2023-09-30T08:40:50;101678.80;;;15.81;80.56
62928;BME280;51070;52.236;-0.892;2023-09-30T08:43:17;101681.30;;;15.97;79.68
62928;BME280;51070;52.236;-0.892;2023-09-30T08:45:44;101687.78;;;16.05;78.79
62928;BME280;51070;52.236;-0.892;2023-09-30T08:48:12;101674.45;;;16.09;78.36
62928;BME280;51070;52.236;-0.892;2023-09-30T08:50:37;101668.73;;;16.17;78.85
62928;BME280;51070;52.236;-0.892;2023-09-30T08:53:05;101668.59;;;16.25;78.95
62928;BME280;51070;52.236;-0.892;2023-09-30T08:55:33;101667.45;;;16.37;78.65
62928;BME280;51070;52.236;-0.892;2023-09-30T08:57:59;101674.35;;;16.48;78.09
62928;BME280;51070;52.236;-0.892;2023-09-30T09:00:25;101671.30;;;16.59;78.17
62928;BME280;51070;52.236;-0.892;2023-09-30T09:02:50;101666.39;;;16.80;77.85
62928;BME280;51070;52.236;-0.892;2023-09-30T09:05:15;101666.15;;;17.02;76.95
62928;BME280;51070;52.236;-0.892;2023-09-30T09:07:41;101662.27;;;17.17;76.81
62928;BME280;51070;52.236;-0.892;2023-09-30T09:10:08;101654.49;;;17.39;76.33
62928;BME280;51070;52.236;-0.892;2023-09-30T09:12:35;101649.23;;;17.57;75.41
62928;BME280;51070;52.236;-0.892;2023-09-30T09:15:02;101643.67;;;17.66;75.27
62928;BME280;51070;52.236;-0.892;2023-09-30T09:17:40;101641.00;;;17.74;75.13
62928;BME280;51070;52.236;-0.892;2023-09-30T09:20:07;101648.19;;;17.84;74.03
62928;BME280;51070;52.236;-0.892;2023-09-30T09:22:41;101643.96;;;17.94;73.58
62928;BME280;51070;52.236;-0.892;2023-09-30T09:25:06;101642.68;;;18.12;73.03
62928;BME280;51070;52.236;-0.892;2023-09-30T09:27:35;101651.24;;;18.33;72.03
62928;BME280;51070;52.236;-0.892;2023-09-30T09:35:22;101653.06;;;18.71;69.90
62928;BME280;51070;52.236;-0.892;2023-09-30T09:38:01;101657.66;;;18.74;70.24
62928;BME280;51070;52.236;-0.892;2023-09-30T09:40:27;101655.48;;;18.82;68.58
62928;BME280;51070;52.236;-0.892;2023-09-30T09:42:54;101643.57;;;18.68;68.64
62928;BME280;51070;52.236;-0.892;2023-09-30T09:45:24;101648.05;;;18.63;69.65
62928;BME280;51070;52.236;-0.892;2023-09-30T09:47:50;101660.38;;;19.24;68.61
62928;BME280;51070;52.236;-0.892;2023-09-30T09:50:17;101660.42;;;19.57;66.14
62928;BME280;51070;52.236;-0.892;2023-09-30T09:52:42;101658.05;;;19.65;66.36
62928;BME280;51070;52.236;-0.892;2023-09-30T09:55:09;101656.80;;;20.03;64.63
62928;BME280;51070;52.236;-0.892;2023-09-30T09:57:35;101652.02;;;19.95;64.83
62928;BME280;51070;52.236;-0.892;2023-09-30T10:00:01;101657.66;;;19.80;64.87
62928;BME280;51070;52.236;-0.892;2023-09-30T10:02:30;101659.80;;;20.02;63.78
62928;BME280;51070;52.236;-0.892;2023-09-30T10:04:55;101659.73;;;20.17;61.59
62928;BME280;51070;52.236;-0.892;2023-09-30T10:07:22;101660.02;;;20.08;61.41
62928;BME280;51070;52.236;-0.892;2023-09-30T10:09:48;101666.77;;;19.97;61.59
62928;BME280;51070;52.236;-0.892;2023-09-30T10:12:15;101668.67;;;19.76;62.09
62928;BME280;51070;52.236;-0.892;2023-09-30T10:14:41;101655.02;;;19.61;62.88
62928;BME280;51070;52.236;-0.892;2023-09-30T10:17:07;101647.27;;;19.43;63.17
62928;BME280;51070;52.236;-0.892;2023-09-30T10:19:33;101647.52;;;19.17;64.03
62928;BME280;51070;52.236;-0.892;2023-09-30T10:24:42;101659.23;;;18.88;65.18
62928;BME280;51070;52.236;-0.892;2023-09-30T10:36:01;101641.61;;;18.33;66.70
62928;BME280;51070;52.236;-0.892;2023-09-30T10:40:45;101626.95;;;17.90;66.43
62928;BME280;51070;52.236;-0.892;2023-09-30T10:45:59;101620.59;;;17.76;67.89
62928;BME280;51070;52.236;-0.892;2023-09-30T10:50:50;101598.60;;;17.68;68.54
62928;BME280;51070;52.236;-0.892;2023-09-30T10:53:19;101593.14;;;17.66;68.96
62928;BME280;51070;52.236;-0.892;2023-09-30T10:55:45;101592.86;;;17.60;68.83
62928;BME280;51070;52.236;-0.892;2023-09-30T10:58:10;101594.83;;;17.54;68.24
62928;BME280;51070;52.236;-0.892;2023-09-30T11:00:36;101590.02;;;17.48;68.23
62928;BME280;51070;52.236;-0.892;2023-09-30T11:03:04;101586.31;;;17.46;68.45
62928;BME280;51070;52.236;-0.892;2023-09-30T11:05:31;101586.54;;;17.50;68.83
62928;BME280;51070;52.236;-0.892;2023-09-30T11:08:00;101581.69;;;17.61;68.75
62928;BME280;51070;52.236;-0.892;2023-09-30T11:10:26;101575.77;;;17.72;68.34
62928;BME280;51070;52.236;-0.892;2023-09-30T11:12:55;101572.01;;;17.87;67.50
62928;BME280;51070;52.236;-0.892;2023-09-30T11:15:22;101573.52;;;18.07;67.43
62928;BME280;51070;52.236;-0.892;2023-09-30T11:17:47;101580.27;;;18.25;66.59
62928;BME280;51070;52.236;-0.892;2023-09-30T11:20:12;101580.24;;;18.36;64.91
62928;BME280;51070;52.236;-0.892;2023-09-30T11:22:37;101577.50;;;18.40;64.46
62928;BME280;51070;52.236;-0.892;2023-09-30T11:25:14;101578.23;;;18.42;64.40
62928;BME280;51070;52.236;-0.892;2023-09-30T11:27:41;101570.77;;;18.47;63.66
62928;BME280;51070;52.236;-0.892;2023-09-30T11:30:06;101559.15;;;18.54;63.41
62928;BME280;51070;52.236;-0.892;2023-09-30T11:32:33;101555.02;;;18.59;63.22
62928;BME280;51070;52.236;-0.892;2023-09-30T11:34:59;101559.51;;;18.54;62.18
62928;BME280;51070;52.236;-0.892;2023-09-30T11:37:30;101563.54;;;18.43;61.70
62928;BME280;51070;52.236;-0.892;2023-09-30T11:39:55;101564.70;;;18.38;62.46
62928;BME280;51070;52.236;-0.892;2023-09-30T11:42:20;101564.52;;;18.37;63.22
62928;BME280;51070;52.236;-0.892;2023-09-30T11:44:46;101560.27;;;18.46;63.33
62928;BME280;51070;52.236;-0.892;2023-09-30T11:47:15;101554.31;;;18.57;62.18
62928;BME280;51070;52.236;-0.892;2023-09-30T11:49:42;101547.08;;;18.66;62.13
62928;BME280;51070;52.236;-0.892;2023-09-30T11:52:13;101543.75;;;18.67;62.07
62928;BME280;51070;52.236;-0.892;2023-09-30T11:54:40;101535.80;;;18.75;62.25
62928;BME280;51070;52.236;-0.892;2023-09-30T11:57:08;101532.85;;;18.94;62.18
62928;BME280;51070;52.236;-0.892;2023-09-30T11:59:37;101532.73;;;19.15;61.11
62928;BME280;51070;52.236;-0.892;2023-09-30T12:02:03;101536.83;;;19.22;60.62
62928;BME280;51070;52.236;-0.892;2023-09-30T12:04:29;101536.67;;;19.25;60.23
62928;BME280;51070;52.236;-0.892;2023-09-30T12:06:54;101526.23;;;19.33;60.20
62928;BME280;51070;52.236;-0.892;2023-09-30T12:09:20;101529.95;;;19.53;59.63
62928;BME280;51070;52.236;-0.892;2023-09-30T12:11:50;101537.14;;;19.75;60.00
62928;BME280;51070;52.236;-0.892;2023-09-30T12:14:16;101528.38;;;20.00;59.53
62928;BME280;51070;52.236;-0.892;2023-09-30T12:16:41;101525.06;;;20.04;58.19
62928;BME280;51070;52.236;-0.892;2023-09-30T12:19:06;101542.93;;;20.01;57.52
62928;BME280;51070;52.236;-0.892;2023-09-30T12:21:32;101534.27;;;19.89;57.29
62928;BME280;51070;52.236;-0.892;2023-09-30T12:23:59;101527.89;;;19.82;57.09
62928;BME280;51070;52.236;-0.892;2023-09-30T12:26:25;101527.46;;;19.72;57.34
62928;BME280;51070;52.236;-0.892;2023-09-30T12:28:51;101519.73;;;19.67;57.95
62928;BME280;51070;52.236;-0.892;2023-09-30T12:31:16;101514.14;;;19.72;58.31
62928;BME280;51070;52.236;-0.892;2023-09-30T12:33:41;101509.43;;;19.74;57.73
62928;BME280;51070;52.236;-0.892;2023-09-30T12:36:07;101506.33;;;19.84;57.80
62928;BME280;51070;52.236;-0.892;2023-09-30T12:38:32;101497.77;;;19.87;57.32
62928;BME280;51070;52.236;-0.892;2023-09-30T12:40:58;101495.14;;;19.89;56.93
62928;BME280;51070;52.236;-0.892;2023-09-30T12:43:23;101490.44;;;19.97;56.41
62928;BME280;51070;52.236;-0.892;2023-09-30T12:45:48;101483.60;;;19.95;56.41
62928;BME280;51070;52.236;-0.892;2023-09-30T12:48:14;101486.02;;;19.90;56.67
62928;BME280;51070;52.236;-0.892;2023-09-30T12:50:40;101485.82;;;19.83;56.68
62928;BME280;51070;52.236;-0.892;2023-09-30T12:53:05;101495.55;;;19.72;56.38
62928;BME280;51070;52.236;-0.892;2023-09-30T12:55:32;101502.00;;;19.64;56.06
62928;BME280;51070;52.236;-0.892;2023-09-30T12:57:57;101507.54;;;19.56;55.53
62928;BME280;51070;52.236;-0.892;2023-09-30T13:00:22;101515.01;;;19.49;55.86